Погода Канелана 2 недели

Риу-Гранди-ду-Сул, Бразилия

04 - 16 марта
  • 04марта
    Сегодня
    +14°
    +21°
    Пасмурно, ливень
    ВремяПогодаТемператураВлажностьДавлениеВетер, м/сВероятность осадков
    00:00Облачно с прояснениями+20°C98 %710 мм2.5 м/с28 %
    03:00Пасмурно, сплошная облачность+19°C98 %709 мм1.3 м/с22 %
    06:00Пасмурно, небольшой дождь+19°C99 %709 мм1.0 м/с54 %
    09:00Пасмурно, небольшой дождь+18°C98 %710 мм1.4 м/с51 %
    12:00Пасмурно, дождь+18°C95 %710 мм1.9 м/с86 %
    15:00Пасмурно, ливень+18°C89 %709 мм3.2 м/с98 %
    18:00Пасмурно, небольшой дождь+16°C97 %709 мм2.7 м/с97 %
    21:00Пасмурно, ливень+17°C98 %709 мм2.5 м/с97 %
  • 05марта
    Вторник
    +9°
    +19°
    Пасмурно, небольшой дождь
    ВремяПогодаТемператураВлажностьДавлениеВетер, м/сВероятность осадков
    00:00Пасмурно, дождь+16°C99 %709 мм2.2 м/с94 %
    03:00Пасмурно, дождь+16°C99 %708 мм1.7 м/с90 %
    06:00Пасмурно, дождь+15°C99 %708 мм2.3 м/с86 %
    09:00Пасмурно, дождь+15°C95 %709 мм2.6 м/с77 %
    12:00Пасмурно, небольшой дождь+16°C91 %710 мм3.7 м/с65 %
    15:00Пасмурно, небольшой дождь+17°C88 %709 мм2.8 м/с44 %
    18:00Практически безоблачно+18°C86 %709 мм2.8 м/с18 %
    21:00Ясно и безоблачно+15°C95 %710 мм2.0 м/с5 %
  • 06марта
    Среда
    +14°
    +23°
    Ясно и безоблачно
    ВремяПогодаТемператураВлажностьДавлениеВетер, м/сВероятность осадков
    00:00Ясно и безоблачно+13°C95 %710 мм1.6 м/с5 %
    03:00Ясно и безоблачно+12°C96 %709 мм2.1 м/с5 %
    06:00Практически безоблачно+10°C97 %709 мм2.0 м/с5 %
    09:00Ясно и безоблачно+17°C71 %711 мм1.0 м/с5 %
    12:00Ясно и безоблачно+21°C56 %711 мм2.2 м/с2 %
    15:00Ясно и безоблачно+22°C58 %710 мм3.1 м/с7 %
    18:00Ясно и безоблачно+19°C75 %710 мм3.7 м/с6 %
    21:00Ясно и безоблачно+17°C89 %711 мм2.9 м/с4 %
  • 07марта
    Четверг
    +19°
    +25°
    Небольшая облачность
    ВремяПогодаТемператураВлажностьДавлениеВетер, м/сВероятность осадков
    00:00Ясно и безоблачно+15°C88 %710 мм3.4 м/с5 %
    03:00Ясно и безоблачно+15°C87 %709 мм3.9 м/с5 %
    06:00Ясно и безоблачно+15°C89 %710 мм3.6 м/с5 %
    09:00Ясно и безоблачно+20°C75 %711 мм2.0 м/с5 %
    12:00Небольшая облачность+24°C63 %711 мм1.6 м/с13 %
    15:00Небольшая облачность+24°C66 %710 мм2.3 м/с43 %
    18:00Пасмурно, небольшой дождь+22°C82 %709 мм1.9 м/с53 %
    21:00Облачно с прояснениями+20°C88 %710 мм4.8 м/с19 %
Мы используем cookies
Соглашаюсь